Terminal Aerodrome Forecast
Issued by NWS Paducah, KY

Home | Current Version | Previous Version | Graphics & Text | Print | Product List | Glossary On
Versions: 1 2 3 4 5 6 7 8 9 10 11 12 13 14 15 16 17 18 19 20 21 22 23
000
FTUS43 KPAH 280428 AAA
TAFEVV
TAF AMD
KEVV 280428Z 2804/2824 20002KT P6SM BKN250
     FM280900 20002KT P6SM OVC015
      TEMPO 2809/2813 4SM BR
     FM281600 18010KT P6SM SCT050=

USA.gov is the U.S. government's official web portal to all federal, state and local government web resources and services.